createdAt,value
2022-10-29T00:01:50.867Z,100.00
2022-10-29T00:04:23.023Z,100.00
2022-10-29T00:06:55.218Z,100.00
2022-10-29T00:09:27.410Z,100.00
2022-10-29T00:11:59.550Z,100.00
2022-10-29T00:14:31.592Z,100.00
2022-10-29T00:17:03.680Z,100.00
2022-10-29T00:19:35.696Z,100.00
2022-10-29T00:22:07.762Z,100.00
2022-10-29T00:24:39.751Z,100.00
2022-10-29T00:27:11.828Z,100.00
2022-10-29T00:29:43.961Z,100.00
2022-10-29T00:32:16.117Z,100.00
2022-10-29T00:34:48.249Z,100.00
2022-10-29T00:37:20.313Z,100.00
2022-10-29T00:39:52.247Z,100.00
2022-10-29T00:42:24.420Z,100.00
2022-10-29T00:44:56.373Z,100.00
2022-10-29T00:47:30.851Z,100.00
2022-10-29T00:50:06.378Z,100.00
2022-10-29T00:52:43.535Z,100.00
2022-10-29T00:55:17.263Z,100.00
2022-10-29T00:57:53.073Z,100.00
2022-10-29T01:00:25.784Z,100.00
2022-10-29T01:02:58.210Z,100.00
2022-10-29T01:05:31.850Z,100.00
2022-10-29T01:08:05.706Z,100.00
2022-10-29T01:10:49.345Z,100.00
2022-10-29T01:13:38.666Z,100.00
2022-10-29T01:16:19.413Z,100.00
2022-10-29T01:19:00.839Z,100.00
2022-10-29T01:21:53.622Z,100.00
2022-10-29T01:25:07.239Z,100.00
2022-10-29T01:27:55.234Z,100.00
2022-10-29T01:30:40.915Z,100.00
2022-10-29T01:33:19.659Z,100.00
2022-10-29T01:35:58.686Z,100.00
2022-10-29T01:38:40.486Z,100.00
2022-10-29T01:41:22.889Z,100.00
2022-10-29T01:43:58.364Z,100.00
2022-10-29T01:46:36.289Z,100.00
2022-10-29T01:49:13.504Z,100.00
2022-10-29T01:51:47.518Z,100.00
2022-10-29T01:54:19.505Z,100.00
2022-10-29T01:56:59.097Z,100.00
2022-10-29T01:59:54.984Z,100.00
2022-10-29T02:02:32.031Z,100.00
2022-10-29T02:05:19.707Z,100.00
2022-10-29T02:07:55.716Z,100.00
2022-10-29T02:10:34.830Z,100.00
2022-10-29T02:13:08.196Z,100.00
2022-10-29T02:15:44.124Z,100.00
2022-10-29T02:18:17.137Z,100.00
2022-10-29T02:20:49.796Z,100.00
2022-10-29T02:23:21.811Z,100.00
2022-10-29T02:25:53.951Z,100.00
2022-10-29T02:28:26.221Z,100.00
2022-10-29T02:30:58.262Z,100.00
2022-10-29T02:33:30.299Z,100.00
2022-10-29T02:36:02.596Z,100.00
2022-10-29T02:38:34.610Z,100.00
2022-10-29T02:41:06.869Z,100.00
2022-10-29T02:43:38.869Z,100.00
2022-10-29T02:46:16.209Z,100.00
2022-10-29T02:48:48.634Z,100.00
2022-10-29T02:51:20.980Z,100.00
2022-10-29T02:53:52.955Z,100.00
2022-10-29T02:56:25.067Z,100.00
2022-10-29T02:58:57.071Z,100.00
2022-10-29T03:01:29.447Z,100.00
2022-10-29T03:04:02.103Z,100.00
2022-10-29T03:06:34.221Z,100.00
2022-10-29T03:09:06.592Z,100.00
2022-10-29T03:11:38.560Z,100.00
2022-10-29T03:14:10.508Z,100.00
2022-10-29T03:16:42.585Z,100.00
2022-10-29T03:19:14.574Z,100.00
2022-10-29T03:21:46.693Z,100.00
2022-10-29T03:24:18.649Z,100.00
2022-10-29T03:26:50.673Z,100.00
2022-10-29T03:29:22.650Z,100.00
2022-10-29T03:31:54.679Z,100.00
2022-10-29T03:34:26.670Z,100.00
2022-10-29T03:36:58.734Z,100.00
2022-10-29T03:39:30.872Z,100.00
2022-10-29T03:42:04.191Z,100.00
2022-10-29T03:44:36.206Z,100.00
2022-10-29T03:47:10.369Z,100.00
2022-10-29T03:49:42.409Z,100.00
2022-10-29T03:52:14.809Z,100.00
2022-10-29T03:54:46.875Z,100.00
2022-10-29T03:57:18.889Z,100.00
2022-10-29T03:59:52.595Z,100.00
2022-10-29T04:02:26.041Z,100.00
2022-10-29T04:04:58.159Z,100.00
2022-10-29T04:07:30.336Z,100.00
2022-10-29T04:10:02.574Z,100.00
2022-10-29T04:12:34.793Z,100.00
2022-10-29T04:15:08.305Z,100.00
2022-10-29T04:17:40.310Z,100.00
2022-10-29T04:20:27.889Z,100.00
2022-10-29T04:25:47.496Z,100.00
2022-10-29T04:28:54.208Z,100.00
2022-10-29T04:31:26.222Z,100.00
2022-10-29T04:33:58.389Z,100.00
2022-10-29T04:36:30.713Z,100.00
2022-10-29T04:39:02.718Z,100.00
2022-10-29T04:41:35.151Z,100.00
2022-10-29T04:44:07.468Z,100.00
2022-10-29T04:46:39.466Z,100.00
2022-10-29T04:49:11.647Z,100.00
2022-10-29T04:51:44.387Z,100.00
2022-10-29T04:54:16.896Z,100.00
2022-10-29T04:56:48.941Z,100.00
2022-10-29T04:59:21.096Z,100.00
2022-10-29T05:01:53.214Z,100.00
2022-10-29T05:04:25.357Z,100.00
2022-10-29T05:06:57.473Z,100.00
2022-10-29T05:09:29.561Z,100.00
2022-10-29T05:12:01.632Z,100.00
2022-10-29T05:14:33.721Z,100.00
2022-10-29T05:19:43.312Z,100.00
2022-10-29T05:22:15.454Z,100.00
2022-10-29T05:24:47.463Z,100.00
2022-10-29T05:27:19.529Z,100.00
2022-10-29T05:29:52.106Z,100.00
2022-10-29T05:32:24.252Z,100.00
2022-10-29T05:34:56.391Z,100.00
2022-10-29T05:37:29.021Z,100.00
2022-10-29T05:40:00.943Z,100.00
2022-10-29T05:42:33.084Z,100.00
2022-10-29T05:45:05.521Z,100.00
2022-10-29T05:47:37.669Z,100.00
2022-10-29T05:50:11.455Z,100.00
2022-10-29T05:52:43.695Z,100.00
2022-10-29T05:55:15.970Z,100.00
2022-10-29T05:57:48.043Z,100.00
2022-10-29T06:00:20.710Z,100.00
2022-10-29T06:02:52.971Z,100.00
2022-10-29T06:05:25.701Z,100.00
2022-10-29T06:07:59.227Z,100.00
2022-10-29T06:10:31.994Z,100.00
2022-10-29T06:13:04.240Z,100.00
2022-10-29T06:15:36.328Z,100.00
2022-10-29T06:18:08.986Z,100.00
2022-10-29T06:20:43.790Z,100.00
2022-10-29T06:23:16.062Z,100.00
2022-10-29T06:25:48.259Z,100.00
2022-10-29T06:28:20.579Z,100.00
2022-10-29T06:30:53.310Z,100.00
2022-10-29T06:33:25.298Z,100.00
2022-10-29T06:36:01.687Z,100.00
2022-10-29T06:38:34.062Z,100.00
2022-10-29T06:41:06.685Z,100.00
2022-10-29T06:43:38.692Z,100.00
2022-10-29T06:46:10.870Z,100.00
2022-10-29T06:48:42.865Z,100.00
2022-10-29T06:51:14.948Z,100.00
2022-10-29T06:53:47.002Z,100.00
2022-10-29T06:56:19.009Z,100.00
2022-10-29T06:58:51.075Z,100.00
2022-10-29T07:01:24.606Z,100.00
2022-10-29T07:03:59.808Z,100.00
2022-10-29T07:06:35.080Z,100.00
2022-10-29T07:09:07.249Z,100.00
2022-10-29T07:11:39.393Z,100.00
2022-10-29T07:14:12.073Z,100.00
2022-10-29T07:16:44.113Z,100.00
2022-10-29T07:19:16.101Z,100.00
2022-10-29T07:21:48.397Z,100.00
2022-10-29T07:24:20.386Z,100.00
2022-10-29T07:26:52.682Z,100.00
2022-10-29T07:29:24.672Z,100.00
2022-10-29T07:31:56.661Z,100.00
2022-10-29T07:34:28.648Z,100.00
2022-10-29T07:37:00.991Z,100.00
2022-10-29T07:39:33.117Z,100.00
2022-10-29T07:42:05.718Z,100.00
2022-10-29T07:44:37.631Z,100.00
2022-10-29T07:47:09.721Z,100.00
2022-10-29T07:49:41.708Z,100.00
2022-10-29T07:52:13.800Z,100.00
2022-10-29T07:54:45.764Z,100.00
2022-10-29T07:57:18.247Z,100.00
2022-10-29T07:59:52.123Z,100.00
2022-10-29T08:02:24.137Z,100.00
2022-10-29T08:04:56.104Z,100.00
2022-10-29T08:07:28.243Z,100.00
2022-10-29T08:10:00.208Z,100.00
2022-10-29T08:12:32.273Z,100.00
2022-10-29T08:15:05.977Z,100.00
2022-10-29T08:17:38.043Z,100.00
2022-10-29T08:20:12.230Z,100.00
2022-10-29T08:22:44.325Z,100.00
2022-10-29T08:25:17.512Z,100.00
2022-10-29T08:28:01.322Z,100.00
2022-10-29T08:30:34.297Z,100.00
2022-10-29T08:33:06.974Z,100.00
2022-10-29T08:35:39.023Z,100.00
2022-10-29T08:38:11.133Z,100.00
2022-10-29T08:40:56.049Z,100.00
2022-10-29T08:43:56.840Z,100.00
2022-10-29T08:46:41.659Z,100.00
2022-10-29T08:49:19.046Z,100.00
2022-10-29T08:51:58.175Z,100.00
2022-10-29T08:54:34.260Z,100.00
2022-10-29T08:57:14.928Z,100.00
2022-10-29T09:00:05.948Z,100.00
2022-10-29T09:02:40.410Z,100.00
2022-10-29T09:05:18.391Z,100.00
2022-10-29T09:08:12.222Z,100.00
2022-10-29T09:10:48.685Z,100.00
2022-10-29T09:13:45.095Z,100.00
2022-10-29T09:16:33.938Z,100.00
2022-10-29T09:19:28.243Z,100.00
2022-10-29T09:22:11.266Z,100.00
2022-10-29T09:24:50.858Z,100.00
2022-10-29T09:27:30.810Z,100.00
2022-10-29T09:30:14.113Z,100.00
2022-10-29T09:32:56.601Z,100.00
2022-10-29T09:35:39.733Z,100.00
2022-10-29T09:38:19.538Z,100.00
2022-10-29T09:40:51.562Z,100.00
2022-10-29T09:43:39.225Z,100.00
2022-10-29T09:46:21.547Z,100.00
2022-10-29T09:49:01.849Z,100.00
2022-10-29T09:51:44.188Z,100.00
2022-10-29T09:54:16.715Z,100.00
2022-10-29T09:56:53.297Z,100.00
2022-10-29T09:59:35.208Z,100.00
2022-10-29T10:02:20.123Z,100.00
2022-10-29T10:04:55.546Z,100.00
2022-10-29T10:07:27.611Z,100.00
2022-10-29T10:10:01.308Z,100.00
2022-10-29T10:12:48.305Z,100.00
2022-10-29T10:15:28.358Z,100.00
2022-10-29T10:18:03.497Z,100.00
2022-10-29T10:20:38.834Z,100.00
2022-10-29T10:23:27.250Z,100.00
2022-10-29T10:26:04.001Z,100.00
2022-10-29T10:28:36.360Z,100.00
2022-10-29T10:31:15.238Z,100.00
2022-10-29T10:33:54.351Z,100.00
2022-10-29T10:36:28.611Z,100.00
2022-10-29T10:39:01.715Z,100.00
2022-10-29T10:41:36.508Z,100.00
2022-10-29T10:44:07.624Z,100.00
2022-10-29T10:46:43.938Z,100.00
2022-10-29T10:49:19.741Z,100.00
2022-10-29T10:51:54.718Z,100.00
2022-10-29T10:54:31.325Z,100.00
2022-10-29T10:57:05.883Z,100.00
2022-10-29T10:59:52.324Z,100.00
2022-10-29T11:02:31.683Z,100.00
2022-10-29T11:05:11.254Z,100.00
2022-10-29T11:07:50.103Z,100.00
2022-10-29T11:10:26.549Z,100.00
2022-10-29T11:13:02.688Z,100.00
2022-10-29T11:15:40.253Z,100.00
2022-10-29T11:18:21.310Z,100.00
2022-10-29T11:21:03.425Z,100.00
2022-10-29T11:23:44.556Z,99.97
2022-10-29T11:26:21.413Z,100.00
2022-10-29T11:29:01.006Z,100.00
2022-10-29T11:31:42.773Z,100.00
2022-10-29T11:34:20.368Z,99.95
2022-10-29T11:36:59.116Z,98.83
2022-10-29T11:39:38.364Z,100.00
2022-10-29T11:42:13.755Z,100.00
2022-10-29T11:44:45.937Z,100.00
2022-10-29T11:47:46.215Z,99.59
2022-10-29T11:50:28.010Z,100.00
2022-10-29T11:53:09.597Z,100.00
2022-10-29T11:55:57.834Z,99.34
2022-10-29T11:58:38.166Z,100.00
2022-10-29T12:01:21.462Z,100.00
2022-10-29T12:04:21.184Z,99.91
2022-10-29T12:07:12.023Z,99.39
2022-10-29T12:10:07.690Z,99.45
2022-10-29T12:12:50.133Z,99.73
2022-10-29T12:15:27.226Z,100.00
2022-10-29T12:18:09.109Z,99.66
2022-10-29T12:20:48.882Z,99.74
2022-10-29T12:23:32.952Z,99.33
2022-10-29T12:26:12.292Z,99.61
2022-10-29T12:28:54.774Z,99.64
2022-10-29T12:31:34.338Z,98.56
2022-10-29T12:34:09.914Z,99.88
2022-10-29T12:36:53.349Z,98.70
2022-10-29T12:39:33.606Z,98.99
2022-10-29T12:42:12.352Z,97.85
2022-10-29T12:44:53.252Z,97.59
2022-10-29T12:47:32.794Z,98.49
2022-10-29T12:50:17.916Z,97.94
2022-10-29T12:52:56.229Z,97.64
2022-10-29T12:55:29.253Z,97.80
2022-10-29T12:58:21.296Z,96.92
2022-10-29T13:00:53.643Z,94.06
2022-10-29T13:04:03.573Z,96.13
2022-10-29T13:07:05.938Z,94.69
2022-10-29T13:09:40.336Z,94.14
2022-10-29T13:12:15.510Z,94.74
2022-10-29T13:14:53.182Z,94.94
2022-10-29T13:17:33.028Z,95.54
2022-10-29T13:20:09.370Z,95.12
2022-10-29T13:22:59.256Z,94.95
2022-10-29T13:25:54.051Z,95.31
2022-10-29T13:28:51.657Z,95.24
2022-10-29T13:31:50.821Z,94.39
2022-10-29T13:34:53.884Z,94.25
2022-10-29T13:38:03.605Z,95.12
2022-10-29T13:40:55.726Z,94.42
2022-10-29T13:43:28.532Z,94.48
2022-10-29T13:46:28.300Z,95.08
2022-10-29T13:49:03.381Z,94.75
2022-10-29T13:51:42.719Z,95.08
2022-10-29T13:54:23.327Z,95.10
2022-10-29T13:56:59.726Z,94.26
2022-10-29T13:59:41.295Z,93.03
2022-10-29T14:02:48.127Z,93.74
2022-10-29T14:05:24.663Z,93.00
2022-10-29T14:08:00.707Z,93.14
2022-10-29T14:10:36.527Z,94.08
2022-10-29T14:13:23.740Z,93.93
2022-10-29T14:16:04.922Z,93.08
2022-10-29T14:18:40.578Z,93.77
2022-10-29T14:21:18.561Z,93.74
2022-10-29T14:24:00.341Z,93.60
2022-10-29T14:26:34.567Z,93.35
2022-10-29T14:29:20.385Z,92.55
2022-10-29T14:32:07.374Z,93.02
2022-10-29T14:34:40.745Z,93.06
2022-10-29T14:37:18.884Z,93.25
2022-10-29T14:40:00.814Z,93.39
2022-10-29T14:42:36.221Z,93.40
2022-10-29T14:45:18.568Z,93.30
2022-10-29T14:47:54.812Z,93.05
2022-10-29T14:50:28.977Z,93.24
2022-10-29T14:53:04.345Z,93.22
2022-10-29T14:55:40.228Z,93.22
2022-10-29T14:58:20.660Z,93.27
2022-10-29T15:00:58.081Z,93.48
2022-10-29T15:03:34.817Z,93.33
2022-10-29T15:06:20.800Z,93.48
2022-10-29T15:08:57.009Z,93.30
2022-10-29T15:11:37.576Z,92.88
2022-10-29T15:14:32.660Z,92.89
2022-10-29T15:17:12.069Z,92.84
2022-10-29T15:19:49.305Z,92.65
2022-10-29T15:22:27.854Z,92.66
2022-10-29T15:25:01.638Z,92.72
2022-10-29T15:27:36.335Z,92.84
2022-10-29T15:30:07.831Z,93.02
2022-10-29T15:32:39.857Z,92.59
2022-10-29T15:35:19.036Z,92.71
2022-10-29T15:37:51.815Z,92.53
2022-10-29T15:40:25.214Z,92.13
2022-10-29T15:42:57.864Z,92.35
2022-10-29T15:45:31.088Z,92.03
2022-10-29T15:48:30.700Z,92.25
2022-10-29T15:51:03.353Z,92.55
2022-10-29T15:53:36.362Z,92.53
2022-10-29T15:56:14.251Z,92.60
2022-10-29T15:58:46.975Z,92.59
2022-10-29T16:01:19.350Z,91.83
2022-10-29T16:03:51.568Z,92.02
2022-10-29T16:06:23.752Z,91.74
2022-10-29T16:08:58.693Z,91.78
2022-10-29T16:11:30.806Z,91.63
2022-10-29T16:14:02.923Z,91.64
2022-10-29T16:16:35.168Z,92.14
2022-10-29T16:19:07.923Z,92.07
2022-10-29T16:21:41.308Z,91.86
2022-10-29T16:24:16.823Z,91.52
2022-10-29T16:26:48.935Z,91.67
2022-10-29T16:29:21.054Z,91.56
2022-10-29T16:31:53.218Z,91.68
2022-10-29T16:34:25.266Z,91.80
2022-10-29T16:36:57.330Z,91.88
2022-10-29T16:39:29.315Z,92.15
2022-10-29T16:42:01.437Z,92.06
2022-10-29T16:44:33.575Z,92.15
2022-10-29T16:47:05.744Z,92.31
2022-10-29T16:49:38.117Z,91.92
2022-10-29T16:52:16.139Z,91.87
2022-10-29T16:54:51.160Z,91.91
2022-10-29T16:57:26.497Z,91.98
2022-10-29T16:59:58.492Z,91.98
2022-10-29T17:02:30.672Z,92.14
2022-10-29T17:05:02.723Z,92.29
2022-10-29T17:07:34.822Z,92.47
2022-10-29T17:10:08.066Z,92.63
2022-10-29T17:12:40.226Z,92.24
2022-10-29T17:15:13.156Z,91.75
2022-10-29T17:17:46.470Z,91.57
2022-10-29T17:20:18.951Z,91.74
2022-10-29T17:22:51.023Z,91.65
2022-10-29T17:25:23.140Z,91.23
2022-10-29T17:27:55.772Z,90.97
2022-10-29T17:30:28.169Z,91.11
2022-10-29T17:33:00.622Z,91.84
2022-10-29T17:35:33.103Z,91.76
2022-10-29T17:38:05.160Z,91.48
2022-10-29T17:40:37.587Z,91.55
2022-10-29T17:43:09.624Z,91.44
2022-10-29T17:45:42.001Z,91.03
2022-10-29T17:48:14.010Z,90.89
2022-10-29T17:50:54.783Z,90.83
2022-10-29T17:53:27.769Z,90.75
2022-10-29T17:56:02.035Z,90.82
2022-10-29T17:58:34.742Z,90.98
2022-10-29T18:01:08.290Z,91.09
2022-10-29T18:03:40.405Z,91.25
2022-10-29T18:06:15.161Z,91.51
2022-10-29T18:08:47.202Z,91.23
2022-10-29T18:11:21.905Z,90.88
2022-10-29T18:13:52.649Z,90.92
2022-10-29T18:16:26.959Z,91.29
2022-10-29T18:19:03.097Z,91.16
2022-10-29T18:21:35.494Z,91.08
2022-10-29T18:24:09.278Z,91.25
2022-10-29T18:26:41.646Z,91.32
2022-10-29T18:29:14.968Z,91.57
2022-10-29T18:31:47.160Z,91.65
2022-10-29T18:34:19.227Z,91.65
2022-10-29T18:36:51.280Z,91.85
2022-10-29T18:39:23.411Z,91.72
2022-10-29T18:41:55.452Z,91.22
2022-10-29T18:44:27.643Z,91.23
2022-10-29T18:46:59.839Z,91.15
2022-10-29T18:49:31.980Z,91.06
2022-10-29T18:52:03.972Z,91.19
2022-10-29T18:54:36.122Z,91.36
2022-10-29T18:57:08.514Z,91.32
2022-10-29T18:59:40.575Z,91.62
2022-10-29T19:02:14.389Z,91.75
2022-10-29T19:04:46.576Z,91.85
2022-10-29T19:07:18.771Z,91.80
2022-10-29T19:09:51.451Z,91.32
2022-10-29T19:12:23.540Z,91.23
2022-10-29T19:14:56.156Z,91.17
2022-10-29T19:17:28.235Z,91.22
2022-10-29T19:20:01.172Z,91.15
2022-10-29T19:22:34.748Z,91.16
2022-10-29T19:25:09.497Z,91.31
2022-10-29T19:27:39.922Z,91.34
2022-10-29T19:30:14.649Z,91.26
2022-10-29T19:32:45.028Z,91.39
2022-10-29T19:35:17.355Z,91.26
2022-10-29T19:37:49.370Z,91.61
2022-10-29T19:40:21.411Z,91.37
2022-10-29T19:42:53.485Z,90.89
2022-10-29T19:45:25.520Z,90.56
2022-10-29T19:47:57.787Z,90.67
2022-10-29T19:50:30.040Z,90.43
2022-10-29T19:53:02.125Z,90.44
2022-10-29T19:55:34.268Z,90.40
2022-10-29T19:58:06.281Z,90.74
2022-10-29T20:00:39.609Z,90.95
2022-10-29T20:03:11.797Z,90.83
2022-10-29T20:05:45.449Z,90.95
2022-10-29T20:08:17.896Z,90.68
2022-10-29T20:10:56.951Z,90.54
2022-10-29T20:13:29.556Z,90.48
2022-10-29T20:16:07.507Z,90.60
2022-10-29T20:18:39.806Z,90.78
2022-10-29T20:21:12.128Z,90.85
2022-10-29T20:23:45.650Z,91.04
2022-10-29T20:26:17.717Z,90.91
2022-10-29T20:28:49.752Z,90.97
2022-10-29T20:31:31.037Z,91.03
2022-10-29T20:34:04.308Z,91.12
2022-10-29T20:36:36.468Z,90.60
2022-10-29T20:39:08.621Z,90.28
2022-10-29T20:41:40.654Z,90.57
2022-10-29T20:44:12.727Z,90.67
2022-10-29T20:46:44.792Z,90.64
2022-10-29T20:49:16.809Z,90.82
2022-10-29T20:51:48.974Z,90.86
2022-10-29T20:54:21.039Z,91.11
2022-10-29T20:56:54.205Z,90.99
2022-10-29T20:59:26.241Z,91.28
2022-10-29T21:01:59.125Z,91.20
2022-10-29T21:04:31.299Z,90.76
2022-10-29T21:07:03.339Z,90.56
2022-10-29T21:09:35.382Z,90.71
2022-10-29T21:12:08.813Z,90.56
2022-10-29T21:14:40.842Z,90.45
2022-10-29T21:17:12.930Z,90.73
2022-10-29T21:19:45.358Z,90.60
2022-10-29T21:22:19.157Z,90.80
2022-10-29T21:24:51.360Z,90.85
2022-10-29T21:27:23.458Z,90.71
2022-10-29T21:29:55.509Z,90.78
2022-10-29T21:32:27.634Z,90.71
2022-10-29T21:34:59.698Z,90.32
2022-10-29T21:37:31.840Z,90.33
2022-10-29T21:40:06.295Z,90.22
2022-10-29T21:42:39.037Z,90.44
2022-10-29T21:45:12.044Z,90.50
2022-10-29T21:47:44.047Z,90.07
2022-10-29T21:50:16.445Z,90.18
2022-10-29T21:52:48.536Z,90.68
2022-10-29T21:55:20.577Z,90.63
2022-10-29T21:57:52.643Z,90.28
2022-10-29T22:00:24.944Z,89.68
2022-10-29T22:03:04.208Z,89.73
2022-10-29T22:05:36.721Z,89.66
2022-10-29T22:08:08.842Z,89.56
2022-10-29T22:10:41.420Z,89.93
2022-10-29T22:13:14.508Z,89.78
2022-10-29T22:15:48.776Z,90.11
2022-10-29T22:18:21.303Z,90.37
2022-10-29T22:21:02.866Z,90.46
2022-10-29T22:23:35.626Z,90.65
2022-10-29T22:26:07.921Z,90.36
2022-10-29T22:28:39.908Z,89.90
2022-10-29T22:31:12.178Z,89.78
2022-10-29T22:33:45.114Z,89.66
2022-10-29T22:36:18.793Z,89.30
2022-10-29T22:38:55.139Z,89.41
2022-10-29T22:41:28.326Z,89.74
2022-10-29T22:44:00.932Z,89.92
2022-10-29T22:46:33.381Z,89.99
2022-10-29T22:49:05.447Z,89.62
2022-10-29T22:51:38.179Z,90.14
2022-10-29T22:54:10.269Z,90.02
2022-10-29T22:56:42.359Z,89.61
2022-10-29T22:59:15.024Z,89.52
2022-10-29T23:01:47.188Z,89.58
2022-10-29T23:04:19.864Z,89.88
2022-10-29T23:06:51.929Z,90.34
2022-10-29T23:09:23.995Z,90.36
2022-10-29T23:11:55.965Z,90.16
2022-10-29T23:14:28.330Z,89.98
2022-10-29T23:17:00.399Z,90.22
2022-10-29T23:19:32.772Z,90.51
2022-10-29T23:22:04.895Z,90.58
2022-10-29T23:24:37.032Z,90.33
2022-10-29T23:27:09.049Z,90.54
2022-10-29T23:29:41.084Z,90.80
2022-10-29T23:32:21.415Z,91.00
2022-10-29T23:34:53.946Z,90.99
2022-10-29T23:37:25.989Z,91.03
2022-10-29T23:39:58.023Z,91.01
2022-10-29T23:42:30.144Z,91.00
2022-10-29T23:45:07.758Z,91.14
2022-10-29T23:47:40.085Z,91.38
2022-10-29T23:50:12.773Z,91.17
2022-10-29T23:52:44.882Z,91.23
2022-10-29T23:55:17.050Z,90.79
2022-10-29T23:57:49.085Z,90.73
